createdAt,value
2019-01-13T00:00:48.018Z,100609.76
2019-01-13T00:03:17.830Z,100608.01
2019-01-13T00:05:48.615Z,100603.36
2019-01-13T00:08:18.360Z,100598.46
2019-01-13T00:10:48.039Z,100598.55
2019-01-13T00:13:17.772Z,100604.30
2019-01-13T00:15:47.431Z,100602.99
2019-01-13T00:18:17.196Z,100608.55
2019-01-13T00:20:46.859Z,100610.24
2019-01-13T00:23:16.689Z,100618.48
2019-01-13T00:25:47.324Z,100611.45
2019-01-13T00:28:16.999Z,100610.24
2019-01-13T00:30:46.663Z,100605.95
2019-01-13T00:33:16.329Z,100598.01
2019-01-13T00:35:46.100Z,100598.91
2019-01-13T00:38:15.754Z,100591.66
2019-01-13T00:40:45.435Z,100595.02
2019-01-13T00:43:15.100Z,100594.87
2019-01-13T00:45:44.827Z,100594.11
2019-01-13T00:48:14.810Z,100585.92
2019-01-13T00:50:44.487Z,100579.07
2019-01-13T00:53:14.148Z,100576.68
2019-01-13T00:55:43.978Z,100591.72
2019-01-13T00:58:13.631Z,100592.53
2019-01-13T01:00:43.443Z,100584.38
2019-01-13T01:03:13.185Z,100572.23
2019-01-13T01:05:42.938Z,100586.80
2019-01-13T01:08:13.528Z,100577.44
2019-01-13T01:10:43.419Z,100579.64
2019-01-13T01:13:13.242Z,100571.09
2019-01-13T01:15:43.893Z,100560.70
2019-01-13T01:18:13.549Z,100561.84
2019-01-13T01:20:43.211Z,100564.80
2019-01-13T01:23:13.033Z,100557.41
2019-01-13T01:25:42.694Z,100560.00
2019-01-13T01:28:12.373Z,100549.06
2019-01-13T01:30:42.041Z,100554.61
2019-01-13T01:33:11.778Z,100553.77
2019-01-13T01:35:41.458Z,100552.20
2019-01-13T01:38:11.125Z,100540.52
2019-01-13T01:40:41.018Z,100546.16
2019-01-13T01:43:10.686Z,100539.83
2019-01-13T01:45:40.445Z,100530.46
2019-01-13T01:48:10.110Z,100522.19
2019-01-13T01:50:39.782Z,100517.08
2019-01-13T01:53:09.601Z,100504.09
2019-01-13T01:55:39.350Z,100510.23
2019-01-13T01:58:09.165Z,100516.17
2019-01-13T02:00:40.764Z,100504.30
2019-01-13T02:03:10.440Z,100508.19
2019-01-13T02:05:40.110Z,100505.59
2019-01-13T02:08:09.848Z,100496.14
2019-01-13T02:10:39.534Z,100487.41
2019-01-13T02:13:09.350Z,100474.87
2019-01-13T02:15:39.029Z,100481.85
2019-01-13T02:18:08.973Z,100497.34
2019-01-13T02:20:38.637Z,100499.55
2019-01-13T02:23:08.390Z,100490.75
2019-01-13T02:25:38.090Z,100499.85
2019-01-13T02:28:07.784Z,100498.19
2019-01-13T02:30:37.454Z,100495.59
2019-01-13T02:33:07.138Z,100512.69
2019-01-13T02:35:36.830Z,100512.69
2019-01-13T02:38:06.762Z,100517.95
2019-01-13T02:40:36.422Z,100524.44
2019-01-13T02:43:06.091Z,100516.64
2019-01-13T02:45:35.775Z,100520.63
2019-01-13T02:48:05.729Z,100517.67
2019-01-13T02:50:35.431Z,100506.80
2019-01-13T02:53:05.102Z,100499.49
2019-01-13T02:55:34.788Z,100489.09
2019-01-13T02:58:05.601Z,100482.96
2019-01-13T03:00:35.354Z,100475.27
2019-01-13T03:03:05.294Z,100464.48
2019-01-13T03:05:35.988Z,100458.47
2019-01-13T03:08:05.762Z,100455.69
2019-01-13T03:10:35.584Z,100450.28
2019-01-13T03:13:05.847Z,100448.53
2019-01-13T03:15:35.540Z,100443.34
2019-01-13T03:18:06.101Z,100438.23
2019-01-13T03:20:35.849Z,100435.64
2019-01-13T03:23:05.696Z,100440.28
2019-01-13T03:25:35.374Z,100437.20
2019-01-13T03:28:05.337Z,100419.50
2019-01-13T03:30:35.079Z,100426.81
2019-01-13T03:33:05.029Z,100424.70
2019-01-13T03:35:34.778Z,100427.84
2019-01-13T03:38:05.911Z,100426.36
2019-01-13T03:40:36.463Z,100422.91
2019-01-13T03:43:06.244Z,100415.05
2019-01-13T03:45:35.922Z,100413.27
2019-01-13T03:48:05.680Z,100410.13
2019-01-13T03:50:35.387Z,100420.06
2019-01-13T03:53:05.330Z,100410.87
2019-01-13T03:55:34.997Z,100395.28
2019-01-13T03:58:04.781Z,100395.22
2019-01-13T04:00:34.530Z,100385.17
2019-01-13T04:03:05.082Z,100375.63
2019-01-13T04:05:34.848Z,100363.84
2019-01-13T04:08:05.634Z,100350.30
2019-01-13T04:10:35.324Z,100342.05
2019-01-13T04:13:05.200Z,100333.41
2019-01-13T04:15:45.642Z,100332.56
2019-01-13T04:18:15.398Z,100323.95
2019-01-13T04:20:45.081Z,100326.06
2019-01-13T04:23:14.828Z,100326.00
2019-01-13T04:25:44.589Z,100315.86
2019-01-13T04:28:14.282Z,100305.56
2019-01-13T04:30:44.030Z,100293.03
2019-01-13T04:33:13.859Z,100287.20
2019-01-13T04:35:43.550Z,100278.92
2019-01-13T04:38:14.208Z,100276.81
2019-01-13T04:40:43.878Z,100279.66
2019-01-13T04:43:13.551Z,100272.16
2019-01-13T04:45:43.296Z,100281.70
2019-01-13T04:48:13.290Z,100252.02
2019-01-13T04:50:42.972Z,100256.39
2019-01-13T04:53:12.976Z,100260.64
2019-01-13T04:55:42.719Z,100246.73
2019-01-13T04:58:12.399Z,100235.39
2019-01-13T05:00:42.089Z,100245.23
2019-01-13T05:03:12.807Z,100239.68
2019-01-13T05:05:42.748Z,100233.99
2019-01-13T05:08:12.673Z,100227.88
2019-01-13T05:10:42.348Z,100218.30
2019-01-13T05:13:12.022Z,100220.89
2019-01-13T05:15:41.724Z,100216.08
2019-01-13T05:18:11.400Z,100219.03
2019-01-13T05:20:41.309Z,100216.99
2019-01-13T05:23:11.022Z,100220.89
2019-01-13T05:25:40.718Z,100225.53
2019-01-13T05:28:10.394Z,100223.77
2019-01-13T05:30:40.069Z,100212.08
2019-01-13T05:33:09.741Z,100208.74
2019-01-13T05:35:39.418Z,100208.18
2019-01-13T05:38:09.102Z,100211.16
2019-01-13T05:40:38.766Z,100204.66
2019-01-13T05:43:08.437Z,100191.92
2019-01-13T05:45:38.121Z,100195.25
2019-01-13T05:48:08.109Z,100182.36
2019-01-13T05:50:37.786Z,100180.71
2019-01-13T05:53:07.971Z,100174.46
2019-01-13T05:55:37.728Z,100166.66
2019-01-13T05:58:07.409Z,100159.88
2019-01-13T06:00:41.264Z,100158.13
2019-01-13T06:03:10.948Z,100154.02
2019-01-13T06:05:40.621Z,100145.30
2019-01-13T06:08:10.299Z,100140.94
2019-01-13T06:10:39.987Z,100137.39
2019-01-13T06:13:09.771Z,100129.23
2019-01-13T06:15:39.437Z,100124.67
2019-01-13T06:18:09.187Z,100117.71
2019-01-13T06:20:38.875Z,100116.58
2019-01-13T06:23:08.554Z,100112.11
2019-01-13T06:25:38.219Z,100110.81
2019-01-13T06:28:07.904Z,100105.39
2019-01-13T06:30:37.562Z,100106.34
2019-01-13T06:33:07.228Z,100101.15
2019-01-13T06:35:36.900Z,100101.50
2019-01-13T06:38:06.640Z,100096.92
2019-01-13T06:40:36.328Z,100092.21
2019-01-13T06:43:05.992Z,100087.36
2019-01-13T06:45:35.661Z,100091.53
2019-01-13T06:48:05.423Z,100087.98
2019-01-13T06:50:35.200Z,100083.63
2019-01-13T06:53:05.092Z,100086.95
2019-01-13T06:55:34.782Z,100080.27
2019-01-13T06:58:05.422Z,100075.31
2019-01-13T07:00:35.087Z,100072.98
2019-01-13T07:03:05.382Z,100071.67
2019-01-13T07:05:35.056Z,100066.75
2019-01-13T07:08:05.413Z,100058.38
2019-01-13T07:10:35.084Z,100055.31
2019-01-13T07:13:05.451Z,100052.60
2019-01-13T07:15:35.110Z,100046.09
2019-01-13T07:18:05.788Z,100046.94
2019-01-13T07:20:35.442Z,100042.92
2019-01-13T07:23:05.423Z,100041.89
2019-01-13T07:25:35.082Z,100042.36
2019-01-13T07:28:05.295Z,100042.05
2019-01-13T07:30:35.026Z,100032.84
2019-01-13T07:33:05.506Z,100032.84
2019-01-13T07:35:35.171Z,100034.86
2019-01-13T07:38:05.341Z,100032.98
2019-01-13T07:40:35.002Z,100027.33
2019-01-13T07:43:05.159Z,100029.70
2019-01-13T07:45:34.901Z,100037.40
2019-01-13T07:48:05.452Z,100033.03
2019-01-13T07:50:35.198Z,100030.23
2019-01-13T07:53:05.398Z,100028.59
2019-01-13T07:55:35.084Z,100032.20
2019-01-13T07:58:05.074Z,100023.36
2019-01-13T08:00:35.503Z,100035.33
2019-01-13T08:03:06.382Z,100030.02
2019-01-13T08:05:36.044Z,100029.63
2019-01-13T08:08:05.787Z,100023.50
2019-01-13T08:10:35.582Z,100016.42
2019-01-13T08:13:05.630Z,100009.80
2019-01-13T08:15:35.379Z,100005.32
2019-01-13T08:18:05.846Z,100004.75
2019-01-13T08:20:35.669Z,100005.12
2019-01-13T08:23:05.342Z,100001.56
2019-01-13T08:25:35.185Z,100000.15
2019-01-13T08:28:05.816Z,100000.15
2019-01-13T08:30:35.667Z,99995.32
2019-01-13T08:33:05.471Z,99994.74
2019-01-13T08:35:35.229Z,99999.03
2019-01-13T08:38:05.700Z,99991.48
2019-01-13T08:40:35.447Z,99988.15
2019-01-13T08:43:05.342Z,99987.39
2019-01-13T08:45:35.090Z,99974.30
2019-01-13T08:48:05.076Z,99978.84
2019-01-13T08:50:34.744Z,99985.95
2019-01-13T08:53:05.662Z,99972.79
2019-01-13T08:55:35.404Z,99964.86
2019-01-13T08:58:05.789Z,99973.77
2019-01-13T09:00:35.841Z,99966.19
2019-01-13T09:03:06.855Z,99975.69
2019-01-13T09:05:36.674Z,99957.66
2019-01-13T09:08:06.931Z,99962.86
2019-01-13T09:10:36.682Z,99958.61
2019-01-13T09:13:06.423Z,99952.56
2019-01-13T09:15:36.155Z,99944.30
2019-01-13T09:18:05.916Z,99940.01
2019-01-13T09:20:35.758Z,99947.48
2019-01-13T09:23:05.767Z,99930.89
2019-01-13T09:25:36.673Z,99939.81
2019-01-13T09:28:07.363Z,99935.18
2019-01-13T09:30:37.117Z,99929.59
2019-01-13T09:33:06.933Z,99931.48
2019-01-13T09:35:36.855Z,99940.50
2019-01-13T09:38:06.961Z,99932.11
2019-01-13T09:40:37.677Z,99939.29
2019-01-13T09:43:07.509Z,99937.18
2019-01-13T09:45:37.939Z,99932.44
2019-01-13T09:48:07.701Z,99933.85
2019-01-13T09:50:37.393Z,99929.83
2019-01-13T09:53:07.133Z,99912.30
2019-01-13T09:55:36.870Z,99912.30
2019-01-13T09:58:06.624Z,99919.88
2019-01-13T10:00:37.671Z,99910.88
2019-01-13T10:03:08.599Z,99918.58
2019-01-13T10:05:38.591Z,99917.16
2019-01-13T10:08:09.080Z,99919.53
2019-01-13T10:10:41.139Z,99919.16
2019-01-13T10:13:10.875Z,99910.59
2019-01-13T10:15:40.606Z,99904.49
2019-01-13T10:18:10.350Z,99892.20
2019-01-13T10:20:40.050Z,99893.72
2019-01-13T10:23:09.794Z,99889.09
2019-01-13T10:25:39.459Z,99875.50
2019-01-13T10:28:09.201Z,99873.61
2019-01-13T10:30:38.943Z,99878.02
2019-01-13T10:33:08.616Z,99873.15
2019-01-13T10:35:38.283Z,99870.34
2019-01-13T10:38:08.060Z,99872.95
2019-01-13T10:40:37.726Z,99863.71
2019-01-13T10:43:07.402Z,99858.97
2019-01-13T10:45:37.064Z,99858.13
2019-01-13T10:48:06.826Z,99859.92
2019-01-13T10:50:36.489Z,99855.77
2019-01-13T10:53:07.959Z,99862.73
2019-01-13T10:55:37.770Z,99847.70
2019-01-13T10:58:07.827Z,99843.09
2019-01-13T11:00:37.826Z,99832.09
2019-01-13T11:03:07.777Z,99821.09
2019-01-13T11:05:37.556Z,99833.77
2019-01-13T11:08:11.627Z,99822.39
2019-01-13T11:13:33.204Z,99819.44
2019-01-13T11:16:02.881Z,99814.95
2019-01-13T11:18:32.551Z,99812.23
2019-01-13T11:21:06.030Z,99806.89
2019-01-13T11:23:35.849Z,99800.51
2019-01-13T11:28:59.323Z,99779.80
2019-01-13T11:31:30.607Z,99781.10
2019-01-13T11:34:00.339Z,99772.45
2019-01-13T11:36:30.078Z,99775.43
2019-01-13T11:38:59.764Z,99770.69
2019-01-13T11:41:49.403Z,99762.41
2019-01-13T11:44:19.098Z,99758.84
2019-01-13T11:46:48.765Z,99753.77
2019-01-13T11:49:18.474Z,99753.89
2019-01-13T11:51:48.138Z,99747.97
2019-01-13T11:54:17.796Z,99742.17
2019-01-13T11:56:47.475Z,99736.38
2019-01-13T11:59:17.399Z,99728.56
2019-01-13T12:01:47.100Z,99729.61
2019-01-13T12:04:16.841Z,99737.80
2019-01-13T12:06:46.574Z,99730.70
2019-01-13T12:09:16.320Z,99732.22
2019-01-13T12:11:46.079Z,99726.55
2019-01-13T12:14:15.747Z,99721.59
2019-01-13T12:16:45.443Z,99715.08
2019-01-13T12:19:15.104Z,99709.62
2019-01-13T12:21:44.791Z,99707.48
2019-01-13T12:24:14.451Z,99695.52
2019-01-13T12:26:44.191Z,99694.70
2019-01-13T12:29:13.938Z,99690.89
2019-01-13T12:31:43.606Z,99691.85
2019-01-13T12:34:13.291Z,99692.91
2019-01-13T12:36:43.209Z,99680.84
2019-01-13T12:39:14.365Z,99671.14
2019-01-13T12:41:44.043Z,99644.14
2019-01-13T12:44:13.788Z,99644.14
2019-01-13T12:46:43.525Z,99620.37
2019-01-13T12:49:18.596Z,99623.31
2019-01-13T12:51:48.255Z,99635.41
2019-01-13T12:54:17.942Z,99642.84
2019-01-13T12:56:47.612Z,99650.91
2019-01-13T12:59:17.274Z,99623.09
2019-01-13T13:01:46.945Z,99623.91
2019-01-13T13:04:17.931Z,99612.30
2019-01-13T13:06:47.613Z,99613.48
2019-01-13T13:09:17.278Z,99596.94
2019-01-13T13:11:52.681Z,99603.91
2019-01-13T13:14:22.336Z,99585.34
2019-01-13T13:16:52.007Z,99595.38
2019-01-13T13:19:21.685Z,99591.95
2019-01-13T13:21:51.421Z,99594.08
2019-01-13T13:24:21.084Z,99589.12
2019-01-13T13:26:50.758Z,99588.75
2019-01-13T13:29:20.510Z,99580.00
2019-01-13T13:31:50.192Z,99554.89
2019-01-13T13:34:19.869Z,99567.92
2019-01-13T13:36:49.539Z,99572.41
2019-01-13T13:39:19.215Z,99575.52
2019-01-13T13:41:48.883Z,99564.84
2019-01-13T13:44:18.558Z,99574.42
2019-01-13T13:46:48.233Z,99574.42
2019-01-13T13:49:17.910Z,99574.80
2019-01-13T13:51:47.588Z,99582.71
2019-01-13T13:54:17.263Z,99572.30
2019-01-13T13:56:46.928Z,99565.79
2019-01-13T13:59:16.595Z,99551.13
2019-01-13T14:01:46.258Z,99555.74
2019-01-13T14:04:15.916Z,99547.94
2019-01-13T14:06:45.568Z,99552.77
2019-01-13T14:09:15.242Z,99549.83
2019-01-13T14:11:44.923Z,99554.56
2019-01-13T14:14:14.605Z,99554.07
2019-01-13T14:16:44.270Z,99553.98
2019-01-13T14:19:13.945Z,99552.43
2019-01-13T14:21:43.626Z,99544.16
2019-01-13T14:24:13.541Z,99542.14
2019-01-13T14:26:43.284Z,99544.62
2019-01-13T14:29:13.012Z,99542.83
2019-01-13T14:31:42.637Z,99547.94
2019-01-13T14:34:12.318Z,99536.09
2019-01-13T14:36:41.981Z,99554.66
2019-01-13T14:39:11.659Z,99537.39
2019-01-13T14:41:41.401Z,99533.73
2019-01-13T14:44:11.089Z,99541.66
2019-01-13T14:46:40.828Z,99545.80
2019-01-13T14:49:10.487Z,99539.50
2019-01-13T14:51:40.155Z,99539.50
2019-01-13T14:54:09.838Z,99535.00
2019-01-13T14:56:39.746Z,99524.84
2019-01-13T14:59:09.489Z,99531.56
2019-01-13T15:01:39.200Z,99536.17
2019-01-13T15:04:08.947Z,99536.17
2019-01-13T15:06:38.618Z,99525.66
2019-01-13T15:09:10.253Z,99516.89
2019-01-13T15:11:39.936Z,99518.42
2019-01-13T15:14:09.932Z,99530.98
2019-01-13T15:16:39.612Z,99524.94
2019-01-13T15:19:09.285Z,99510.61
2019-01-13T15:21:39.210Z,99520.44
2019-01-13T15:24:08.877Z,99519.59
2019-01-13T15:26:38.714Z,99514.27
2019-01-13T15:29:09.630Z,99519.24
2019-01-13T15:31:39.357Z,99535.00
2019-01-13T15:34:10.326Z,99519.71
2019-01-13T15:36:40.074Z,99519.38
2019-01-13T15:39:09.854Z,99512.97
2019-01-13T15:41:39.528Z,99497.68
2019-01-13T15:44:09.305Z,99503.86
2019-01-13T15:46:38.970Z,99496.97
2019-01-13T15:49:08.635Z,99499.11
2019-01-13T15:51:38.323Z,99510.00
2019-01-13T15:54:08.071Z,99491.03
2019-01-13T15:56:37.983Z,99506.56
2019-01-13T15:59:07.746Z,99506.80
2019-01-13T16:01:37.405Z,99495.67
2019-01-13T16:04:07.083Z,99505.25
2019-01-13T16:06:37.048Z,99512.86
2019-01-13T16:12:00.195Z,99504.10
2019-01-13T16:14:29.869Z,99499.94
2019-01-13T16:16:59.551Z,99497.13
2019-01-13T16:22:23.403Z,99516.17
2019-01-13T16:24:53.083Z,99500.81
2019-01-13T16:27:22.757Z,99510.03
2019-01-13T16:29:53.405Z,99502.96
2019-01-13T16:32:23.075Z,99503.19
2019-01-13T16:34:52.742Z,99500.69
2019-01-13T16:37:22.408Z,99490.16
2019-01-13T16:39:52.080Z,99495.61
2019-01-13T16:42:21.746Z,99486.15
2019-01-13T16:44:51.414Z,99470.16
2019-01-13T16:47:21.156Z,99477.03
2019-01-13T16:49:50.833Z,99477.03
2019-01-13T16:52:23.616Z,99482.09
2019-01-13T16:54:59.282Z,99473.50
2019-01-13T16:57:29.026Z,99470.77
2019-01-13T16:59:58.970Z,99486.86
2019-01-13T17:02:33.042Z,99480.72
2019-01-13T17:05:00.270Z,99481.44
2019-01-13T17:07:30.070Z,99485.46
2019-01-13T17:09:59.794Z,99480.84
2019-01-13T17:12:29.462Z,99484.75
2019-01-13T17:14:59.148Z,99482.24
2019-01-13T17:17:28.808Z,99492.06
2019-01-13T17:19:58.492Z,99491.84
2019-01-13T17:22:28.238Z,99504.61
2019-01-13T17:24:57.918Z,99493.73
2019-01-13T17:27:27.654Z,99497.86
2019-01-13T17:29:57.757Z,99488.14
2019-01-13T17:32:27.439Z,99499.17
2019-01-13T17:34:57.099Z,99505.31
2019-01-13T17:37:26.763Z,99508.89
2019-01-13T17:39:56.473Z,99505.45
2019-01-13T17:42:26.232Z,99510.98
2019-01-13T17:44:55.915Z,99500.58
2019-01-13T17:47:25.653Z,99506.37
2019-01-13T17:49:55.334Z,99498.90
2019-01-13T17:52:35.863Z,99517.02
2019-01-13T17:55:07.245Z,99512.77
2019-01-13T17:57:37.001Z,99509.08
2019-01-13T18:00:12.372Z,99528.14
2019-01-13T18:02:42.043Z,99521.76
2019-01-13T18:05:11.841Z,99519.73
2019-01-13T18:07:42.597Z,99516.55
2019-01-13T18:10:12.384Z,99531.45
2019-01-13T18:12:42.051Z,99521.76
2019-01-13T18:15:11.893Z,99528.83
2019-01-13T18:17:41.582Z,99532.98
2019-01-13T18:20:14.795Z,99536.17
2019-01-13T18:22:44.550Z,99540.66
2019-01-13T18:25:14.399Z,99538.06
2019-01-13T18:27:44.153Z,99555.09
2019-01-13T18:30:16.837Z,99552.95
2019-01-13T18:32:46.572Z,99560.52
2019-01-13T18:35:17.380Z,99558.28
2019-01-13T18:37:47.147Z,99562.41
2019-01-13T18:40:19.187Z,99562.91
2019-01-13T18:42:48.948Z,99554.72
2019-01-13T18:45:18.788Z,99559.00
2019-01-13T18:47:48.526Z,99553.55
2019-01-13T18:50:19.116Z,99543.39
2019-01-13T18:52:54.762Z,99565.01
2019-01-13T18:55:24.435Z,99560.52
2019-01-13T18:57:54.122Z,99564.55
2019-01-13T19:00:25.554Z,99578.14
2019-01-13T19:02:55.301Z,99574.95
2019-01-13T19:05:25.193Z,99575.53
2019-01-13T19:07:54.883Z,99578.25
2019-01-13T19:10:34.667Z,99583.34
2019-01-13T19:13:15.135Z,99573.89
2019-01-13T19:15:45.973Z,99565.72
2019-01-13T19:23:56.809Z,99577.30
2019-01-13T19:26:26.554Z,99571.38
2019-01-13T19:28:56.244Z,99582.96
2019-01-13T19:31:25.914Z,99579.44
2019-01-13T19:33:55.597Z,99581.78
2019-01-13T19:36:25.324Z,99577.29
2019-01-13T19:38:55.012Z,99560.72
2019-01-13T19:41:24.678Z,99577.29
2019-01-13T19:43:54.408Z,99573.27
2019-01-13T19:46:24.085Z,99569.48
2019-01-13T19:49:12.155Z,99579.17
2019-01-13T19:54:35.275Z,99578.92
2019-01-13T19:57:05.362Z,99576.91
2019-01-13T19:59:36.219Z,99582.36
2019-01-13T20:02:05.972Z,99588.36
2019-01-13T20:04:35.722Z,99584.24
2019-01-13T20:07:06.382Z,99591.92
2019-01-13T20:09:36.190Z,99590.63
2019-01-13T20:12:06.104Z,99582.82
2019-01-13T20:14:36.090Z,99599.01
2019-01-13T20:17:05.836Z,99603.75
2019-01-13T20:19:35.521Z,99599.59
2019-01-13T20:22:05.517Z,99620.73
2019-01-13T20:24:35.187Z,99639.84
2019-01-13T20:27:05.820Z,99618.19
2019-01-13T20:29:35.484Z,99619.41
2019-01-13T20:32:05.382Z,99611.48
2019-01-13T20:34:35.130Z,99614.80
2019-01-13T20:37:05.614Z,99619.39
2019-01-13T20:39:37.138Z,99618.70
2019-01-13T20:42:06.996Z,99619.75
2019-01-13T20:44:36.654Z,99634.41
2019-01-13T20:47:07.167Z,99641.00
2019-01-13T20:49:36.868Z,99638.06
2019-01-13T20:52:06.665Z,99653.41
2019-01-13T20:54:37.295Z,99637.78
2019-01-13T20:57:06.960Z,99667.66
2019-01-13T20:59:36.625Z,99663.03
2019-01-13T21:02:06.448Z,99671.21
2019-01-13T21:04:36.119Z,99671.21
2019-01-13T21:07:05.860Z,99666.53
2019-01-13T21:09:36.490Z,99666.85
2019-01-13T21:12:06.143Z,99669.67
2019-01-13T21:14:35.824Z,99671.17
2019-01-13T21:17:05.643Z,99688.41
2019-01-13T21:19:35.308Z,99680.92
2019-01-13T21:22:05.492Z,99684.41
2019-01-13T21:24:35.865Z,99691.13
2019-01-13T21:27:05.615Z,99687.08
2019-01-13T21:29:36.255Z,99687.95
2019-01-13T21:32:05.939Z,99692.31
2019-01-13T21:34:35.609Z,99691.02
2019-01-13T21:37:05.440Z,99689.14
2019-01-13T21:39:35.120Z,99708.84
2019-01-13T21:42:05.592Z,99701.78
2019-01-13T21:44:35.264Z,99711.22
2019-01-13T21:47:05.025Z,99707.89
2019-01-13T21:49:35.169Z,99704.98
2019-01-13T21:52:06.237Z,99720.30
2019-01-13T21:54:35.892Z,99719.73
2019-01-13T21:57:05.819Z,99715.84
2019-01-13T21:59:35.501Z,99710.45
2019-01-13T22:02:05.366Z,99711.83
2019-01-13T22:04:35.204Z,99715.16
2019-01-13T22:07:05.435Z,99711.59
2019-01-13T22:09:35.113Z,99716.95
2019-01-13T22:12:05.305Z,99714.66
2019-01-13T22:14:34.986Z,99715.57
2019-01-13T22:17:05.083Z,99720.42
2019-01-13T22:19:34.997Z,99723.74
2019-01-13T22:22:05.516Z,99728.83
2019-01-13T22:24:35.187Z,99731.16
2019-01-13T22:27:05.119Z,99722.91
2019-01-13T22:29:35.997Z,99726.69
2019-01-13T22:32:05.831Z,99742.65
2019-01-13T22:34:35.510Z,99734.94
2019-01-13T22:37:05.178Z,99732.11
2019-01-13T22:39:34.850Z,99741.13
2019-01-13T22:42:05.689Z,99731.53
2019-01-13T22:44:35.590Z,99737.08
2019-01-13T22:47:05.332Z,99746.28
2019-01-13T22:49:34.997Z,99736.34
2019-01-13T22:52:05.675Z,99741.55
2019-01-13T22:54:35.360Z,99748.45
2019-01-13T22:57:05.036Z,99756.81
2019-01-13T22:59:34.701Z,99758.84
2019-01-13T23:02:04.530Z,99767.66
2019-01-13T23:04:34.317Z,99759.52
2019-01-13T23:07:05.031Z,99765.08
2019-01-13T23:09:35.663Z,99765.42
2019-01-13T23:12:05.498Z,99775.47
2019-01-13T23:14:35.150Z,99776.77
2019-01-13T23:17:05.227Z,99791.50
2019-01-13T23:19:34.900Z,99801.45
2019-01-13T23:22:05.690Z,99803.16
2019-01-13T23:24:35.370Z,99806.58
2019-01-13T23:27:06.658Z,99812.55
2019-01-13T23:29:36.320Z,99829.44
2019-01-13T23:32:06.043Z,99816.05
2019-01-13T23:34:35.722Z,99825.13
2019-01-13T23:37:05.910Z,99821.02
2019-01-13T23:39:35.571Z,99821.02
2019-01-13T23:42:05.420Z,99825.98
2019-01-13T23:44:35.071Z,99826.82
2019-01-13T23:47:05.437Z,99831.06
2019-01-13T23:49:35.098Z,99837.20
2019-01-13T23:52:05.301Z,99833.03
2019-01-13T23:54:34.959Z,99839.30
2019-01-13T23:57:05.094Z,99850.17
2019-01-13T23:59:34.763Z,99854.06
